sensor_id;sensor_type;location;lat;lon;timestamp;temperature;humidity
17172;DHT22;8701;50.150;8.756;2022-08-25T00:03:14;23.30;75.70
17172;DHT22;8701;50.150;8.756;2022-08-25T00:07:16;23.20;76.10
17172;DHT22;8701;50.150;8.756;2022-08-25T00:11:22;23.20;76.50
17172;DHT22;8701;50.150;8.756;2022-08-25T00:15:25;23.10;77.20
17172;DHT22;8701;50.150;8.756;2022-08-25T00:19:30;23.00;77.20
17172;DHT22;8701;50.150;8.756;2022-08-25T00:23:32;22.90;77.40
17172;DHT22;8701;50.150;8.756;2022-08-25T00:27:36;22.80;77.80
17172;DHT22;8701;50.150;8.756;2022-08-25T00:31:38;22.80;78.10
17172;DHT22;8701;50.150;8.756;2022-08-25T00:35:44;22.80;78.70
17172;DHT22;8701;50.150;8.756;2022-08-25T00:39:46;22.70;78.80
17172;DHT22;8701;50.150;8.756;2022-08-25T00:43:52;22.70;79.70
17172;DHT22;8701;50.150;8.756;2022-08-25T00:47:54;22.70;80.00
17172;DHT22;8701;50.150;8.756;2022-08-25T00:51:59;22.60;80.40
17172;DHT22;8701;50.150;8.756;2022-08-25T00:56:02;22.60;80.90
17172;DHT22;8701;50.150;8.756;2022-08-25T01:00:10;22.50;81.10
17172;DHT22;8701;50.150;8.756;2022-08-25T01:04:13;22.50;81.60
17172;DHT22;8701;50.150;8.756;2022-08-25T01:08:15;22.40;82.10
17172;DHT22;8701;50.150;8.756;2022-08-25T01:12:21;22.40;82.70
17172;DHT22;8701;50.150;8.756;2022-08-25T01:16:26;22.40;83.50
17172;DHT22;8701;50.150;8.756;2022-08-25T01:20:30;22.60;84.70
17172;DHT22;8701;50.150;8.756;2022-08-25T01:24:39;22.30;84.60
17172;DHT22;8701;50.150;8.756;2022-08-25T01:28:45;22.30;85.20
17172;DHT22;8701;50.150;8.756;2022-08-25T01:33:07;22.20;85.70
17172;DHT22;8701;50.150;8.756;2022-08-25T01:37:12;22.20;86.60
17172;DHT22;8701;50.150;8.756;2022-08-25T01:41:21;22.10;86.70
17172;DHT22;8701;50.150;8.756;2022-08-25T01:45:27;22.10;86.00
17172;DHT22;8701;50.150;8.756;2022-08-25T01:49:29;22.20;85.80
17172;DHT22;8701;50.150;8.756;2022-08-25T01:53:32;22.10;85.60
17172;DHT22;8701;50.150;8.756;2022-08-25T01:57:36;22.10;85.80
17172;DHT22;8701;50.150;8.756;2022-08-25T02:01:39;22.20;86.30
17172;DHT22;8701;50.150;8.756;2022-08-25T02:05:42;22.20;86.70
17172;DHT22;8701;50.150;8.756;2022-08-25T02:09:44;22.20;87.50
17172;DHT22;8701;50.150;8.756;2022-08-25T02:13:48;22.10;88.30
17172;DHT22;8701;50.150;8.756;2022-08-25T02:17:52;22.10;88.90
17172;DHT22;8701;50.150;8.756;2022-08-25T02:21:54;22.10;89.50
17172;DHT22;8701;50.150;8.756;2022-08-25T02:25:56;22.00;89.70
17172;DHT22;8701;50.150;8.756;2022-08-25T02:30:00;22.00;90.00
17172;DHT22;8701;50.150;8.756;2022-08-25T02:34:03;22.00;90.40
17172;DHT22;8701;50.150;8.756;2022-08-25T02:38:07;22.00;90.50
17172;DHT22;8701;50.150;8.756;2022-08-25T02:42:09;22.00;90.80
17172;DHT22;8701;50.150;8.756;2022-08-25T02:46:14;22.00;90.90
17172;DHT22;8701;50.150;8.756;2022-08-25T02:50:17;21.90;91.30
17172;DHT22;8701;50.150;8.756;2022-08-25T02:54:19;21.90;91.70
17172;DHT22;8701;50.150;8.756;2022-08-25T02:58:23;21.90;92.20
17172;DHT22;8701;50.150;8.756;2022-08-25T03:02:28;21.90;92.60
17172;DHT22;8701;50.150;8.756;2022-08-25T03:06:31;21.90;92.80
17172;DHT22;8701;50.150;8.756;2022-08-25T03:10:33;21.90;92.90
17172;DHT22;8701;50.150;8.756;2022-08-25T03:14:36;21.90;93.30
17172;DHT22;8701;50.150;8.756;2022-08-25T03:18:41;21.80;93.70
17172;DHT22;8701;50.150;8.756;2022-08-25T03:22:43;21.80;94.10
17172;DHT22;8701;50.150;8.756;2022-08-25T03:26:46;21.80;94.30
17172;DHT22;8701;50.150;8.756;2022-08-25T03:31:05;21.80;94.80
17172;DHT22;8701;50.150;8.756;2022-08-25T03:35:09;21.70;95.10
17172;DHT22;8701;50.150;8.756;2022-08-25T03:39:12;21.70;95.90
17172;DHT22;8701;50.150;8.756;2022-08-25T03:43:15;21.70;96.50
17172;DHT22;8701;50.150;8.756;2022-08-25T03:47:17;21.70;97.40
17172;DHT22;8701;50.150;8.756;2022-08-25T03:51:25;21.70;98.20
17172;DHT22;8701;50.150;8.756;2022-08-25T03:55:28;21.50;98.60
17172;DHT22;8701;50.150;8.756;2022-08-25T03:59:30;21.50;99.20
17172;DHT22;8701;50.150;8.756;2022-08-25T04:03:32;21.50;99.90
17172;DHT22;8701;50.150;8.756;2022-08-25T04:07:36;21.50;99.90
17172;DHT22;8701;50.150;8.756;2022-08-25T04:11:39;21.40;99.90
17172;DHT22;8701;50.150;8.756;2022-08-25T04:15:42;21.30;99.90
17172;DHT22;8701;50.150;8.756;2022-08-25T04:19:45;21.30;99.90
17172;DHT22;8701;50.150;8.756;2022-08-25T04:23:50;21.20;99.90
17172;DHT22;8701;50.150;8.756;2022-08-25T04:27:52;21.10;99.90
17172;DHT22;8701;50.150;8.756;2022-08-25T04:31:55;21.00;99.90
17172;DHT22;8701;50.150;8.756;2022-08-25T04:35:57;21.00;99.90
17172;DHT22;8701;50.150;8.756;2022-08-25T04:40:01;21.00;99.90
17172;DHT22;8701;50.150;8.756;2022-08-25T04:44:05;20.90;99.90
17172;DHT22;8701;50.150;8.756;2022-08-25T04:48:07;20.90;99.90
17172;DHT22;8701;50.150;8.756;2022-08-25T04:52:10;20.80;99.90
17172;DHT22;8701;50.150;8.756;2022-08-25T04:56:15;20.80;99.90
17172;DHT22;8701;50.150;8.756;2022-08-25T05:00:18;21.00;99.90
17172;DHT22;8701;50.150;8.756;2022-08-25T05:04:20;20.80;99.90
17172;DHT22;8701;50.150;8.756;2022-08-25T05:08:24;20.80;99.90
17172;DHT22;8701;50.150;8.756;2022-08-25T05:12:28;20.80;99.90
17172;DHT22;8701;50.150;8.756;2022-08-25T05:16:30;20.90;99.90
17172;DHT22;8701;50.150;8.756;2022-08-25T05:20:35;20.90;99.90
17172;DHT22;8701;50.150;8.756;2022-08-25T05:24:37;20.90;99.90
17172;DHT22;8701;50.150;8.756;2022-08-25T05:28:41;21.00;99.90
17172;DHT22;8701;50.150;8.756;2022-08-25T05:32:45;21.10;99.90
17172;DHT22;8701;50.150;8.756;2022-08-25T05:36:48;21.20;99.90
17172;DHT22;8701;50.150;8.756;2022-08-25T05:40:52;21.20;99.90
17172;DHT22;8701;50.150;8.756;2022-08-25T05:44:56;21.30;99.90
17172;DHT22;8701;50.150;8.756;2022-08-25T05:48:58;21.40;99.90
17172;DHT22;8701;50.150;8.756;2022-08-25T05:53:01;21.40;99.90
17172;DHT22;8701;50.150;8.756;2022-08-25T05:57:04;21.60;99.90
17172;DHT22;8701;50.150;8.756;2022-08-25T06:01:09;21.70;99.90
17172;DHT22;8701;50.150;8.756;2022-08-25T06:05:28;21.80;99.90
17172;DHT22;8701;50.150;8.756;2022-08-25T06:09:32;21.80;99.90
17172;DHT22;8701;50.150;8.756;2022-08-25T06:13:34;22.00;99.90
17172;DHT22;8701;50.150;8.756;2022-08-25T06:17:39;22.10;99.90
17172;DHT22;8701;50.150;8.756;2022-08-25T06:21:44;22.20;99.90
17172;DHT22;8701;50.150;8.756;2022-08-25T06:25:48;22.30;99.90
17172;DHT22;8701;50.150;8.756;2022-08-25T06:29:50;22.50;99.90
17172;DHT22;8701;50.150;8.756;2022-08-25T06:33:54;22.60;99.90
17172;DHT22;8701;50.150;8.756;2022-08-25T06:37:58;22.70;99.90
17172;DHT22;8701;50.150;8.756;2022-08-25T06:42:01;22.80;99.90
17172;DHT22;8701;50.150;8.756;2022-08-25T06:46:09;22.90;99.90
17172;DHT22;8701;50.150;8.756;2022-08-25T06:50:13;23.00;99.90
17172;DHT22;8701;50.150;8.756;2022-08-25T06:54:15;23.10;99.90
17172;DHT22;8701;50.150;8.756;2022-08-25T06:58:18;23.20;99.90
17172;DHT22;8701;50.150;8.756;2022-08-25T07:07:20;23.40;99.90
17172;DHT22;8701;50.150;8.756;2022-08-25T07:11:22;23.40;99.90
17172;DHT22;8701;50.150;8.756;2022-08-25T07:15:25;23.70;99.90
17172;DHT22;8701;50.150;8.756;2022-08-25T07:19:27;23.80;99.90
17172;DHT22;8701;50.150;8.756;2022-08-25T07:23:31;24.00;99.90
17172;DHT22;8701;50.150;8.756;2022-08-25T07:27:33;24.10;99.90
17172;DHT22;8701;50.150;8.756;2022-08-25T07:31:36;24.20;99.90
17172;DHT22;8701;50.150;8.756;2022-08-25T07:35:38;24.40;99.90
17172;DHT22;8701;50.150;8.756;2022-08-25T07:39:42;24.50;99.90
17172;DHT22;8701;50.150;8.756;2022-08-25T07:43:44;24.70;99.90
17172;DHT22;8701;50.150;8.756;2022-08-25T07:47:48;24.90;99.90
17172;DHT22;8701;50.150;8.756;2022-08-25T07:51:52;25.10;99.90
17172;DHT22;8701;50.150;8.756;2022-08-25T07:55:56;25.50;99.90
17172;DHT22;8701;50.150;8.756;2022-08-25T07:59:58;25.70;99.90
17172;DHT22;8701;50.150;8.756;2022-08-25T08:04:01;26.60;99.90
17172;DHT22;8701;50.150;8.756;2022-08-25T08:08:04;28.80;98.40
17172;DHT22;8701;50.150;8.756;2022-08-25T08:12:08;31.50;92.30
17172;DHT22;8701;50.150;8.756;2022-08-25T08:16:11;33.50;80.20
17172;DHT22;8701;50.150;8.756;2022-08-25T08:20:15;35.10;79.00
17172;DHT22;8701;50.150;8.756;2022-08-25T08:24:17;36.20;72.70
17172;DHT22;8701;50.150;8.756;2022-08-25T08:28:21;36.80;70.40
17172;DHT22;8701;50.150;8.756;2022-08-25T08:32:27;37.70;66.80
17172;DHT22;8701;50.150;8.756;2022-08-25T08:36:30;38.30;66.60
17172;DHT22;8701;50.150;8.756;2022-08-25T08:40:46;38.70;65.40
17172;DHT22;8701;50.150;8.756;2022-08-25T08:45:25;39.30;65.70
17172;DHT22;8701;50.150;8.756;2022-08-25T08:49:34;39.90;61.70
17172;DHT22;8701;50.150;8.756;2022-08-25T08:53:42;40.20;60.30
17172;DHT22;8701;50.150;8.756;2022-08-25T08:57:48;40.90;58.50
17172;DHT22;8701;50.150;8.756;2022-08-25T09:01:57;41.00;59.20
17172;DHT22;8701;50.150;8.756;2022-08-25T09:06:04;41.40;59.50
17172;DHT22;8701;50.150;8.756;2022-08-25T09:10:08;41.80;57.00
17172;DHT22;8701;50.150;8.756;2022-08-25T09:14:24;41.70;56.10
17172;DHT22;8701;50.150;8.756;2022-08-25T09:18:50;41.90;56.00
17172;DHT22;8701;50.150;8.756;2022-08-25T09:23:03;42.30;55.30
17172;DHT22;8701;50.150;8.756;2022-08-25T09:27:20;42.70;54.00
17172;DHT22;8701;50.150;8.756;2022-08-25T09:31:31;43.10;55.30
17172;DHT22;8701;50.150;8.756;2022-08-25T09:35:46;43.60;54.50
17172;DHT22;8701;50.150;8.756;2022-08-25T09:39:51;44.20;52.40
17172;DHT22;8701;50.150;8.756;2022-08-25T09:43:53;44.20;51.60
17172;DHT22;8701;50.150;8.756;2022-08-25T09:48:03;44.10;52.90
17172;DHT22;8701;50.150;8.756;2022-08-25T09:52:45;44.40;52.50
17172;DHT22;8701;50.150;8.756;2022-08-25T09:56:53;45.10;52.80
17172;DHT22;8701;50.150;8.756;2022-08-25T10:01:29;44.90;51.70
17172;DHT22;8701;50.150;8.756;2022-08-25T10:11:35;44.90;51.30
17172;DHT22;8701;50.150;8.756;2022-08-25T10:16:53;45.20;49.80
17172;DHT22;8701;50.150;8.756;2022-08-25T10:32:59;44.90;50.00
17172;DHT22;8701;50.150;8.756;2022-08-25T10:37:11;44.40;51.80
17172;DHT22;8701;50.150;8.756;2022-08-25T10:41:31;43.10;51.60
17172;DHT22;8701;50.150;8.756;2022-08-25T10:45:40;43.30;51.10
17172;DHT22;8701;50.150;8.756;2022-08-25T10:49:48;43.90;52.80
17172;DHT22;8701;50.150;8.756;2022-08-25T10:53:57;44.70;52.60
17172;DHT22;8701;50.150;8.756;2022-08-25T10:58:28;45.40;48.90
17172;DHT22;8701;50.150;8.756;2022-08-25T11:03:11;45.40;49.10
17172;DHT22;8701;50.150;8.756;2022-08-25T11:07:22;46.00;48.30
17172;DHT22;8701;50.150;8.756;2022-08-25T11:11:31;46.10;49.50
17172;DHT22;8701;50.150;8.756;2022-08-25T11:15:39;46.00;48.00
17172;DHT22;8701;50.150;8.756;2022-08-25T11:19:51;46.20;48.70
17172;DHT22;8701;50.150;8.756;2022-08-25T11:23:59;45.30;48.80
17172;DHT22;8701;50.150;8.756;2022-08-25T11:28:10;43.70;49.20
17172;DHT22;8701;50.150;8.756;2022-08-25T11:32:17;41.90;51.50
17172;DHT22;8701;50.150;8.756;2022-08-25T11:36:26;41.80;51.10
17172;DHT22;8701;50.150;8.756;2022-08-25T11:40:49;41.30;50.90
17172;DHT22;8701;50.150;8.756;2022-08-25T11:45:03;42.00;50.80
17172;DHT22;8701;50.150;8.756;2022-08-25T11:49:39;42.80;49.40
17172;DHT22;8701;50.150;8.756;2022-08-25T11:53:46;43.60;49.20
17172;DHT22;8701;50.150;8.756;2022-08-25T11:57:52;44.10;
17172;DHT22;8701;50.150;8.756;2022-08-25T12:02:02;44.00;49.20
17172;DHT22;8701;50.150;8.756;2022-08-25T12:06:15;44.10;49.10
17172;DHT22;8701;50.150;8.756;2022-08-25T12:10:20;44.10;49.00
17172;DHT22;8701;50.150;8.756;2022-08-25T12:14:41;43.10;50.00
17172;DHT22;8701;50.150;8.756;2022-08-25T12:18:44;42.40;50.70
17172;DHT22;8701;50.150;8.756;2022-08-25T12:22:55;42.40;50.20
17172;DHT22;8701;50.150;8.756;2022-08-25T12:27:00;41.70;51.00
17172;DHT22;8701;50.150;8.756;2022-08-25T12:31:21;41.80;51.20
17172;DHT22;8701;50.150;8.756;2022-08-25T12:35:30;41.80;50.00
17172;DHT22;8701;50.150;8.756;2022-08-25T12:39:35;41.50;50.50
17172;DHT22;8701;50.150;8.756;2022-08-25T12:43:39;42.10;49.90
17172;DHT22;8701;50.150;8.756;2022-08-25T12:47:44;42.50;50.50
17172;DHT22;8701;50.150;8.756;2022-08-25T12:51:53;42.80;50.20
17172;DHT22;8701;50.150;8.756;2022-08-25T12:56:02;42.20;49.20
17172;DHT22;8701;50.150;8.756;2022-08-25T13:00:15;42.00;49.40
17172;DHT22;8701;50.150;8.756;2022-08-25T13:04:41;41.80;50.70
17172;DHT22;8701;50.150;8.756;2022-08-25T13:09:22;41.40;50.80
17172;DHT22;8701;50.150;8.756;2022-08-25T13:13:38;41.10;51.30
17172;DHT22;8701;50.150;8.756;2022-08-25T13:17:46;41.10;51.10
17172;DHT22;8701;50.150;8.756;2022-08-25T13:21:50;41.00;49.70
17172;DHT22;8701;50.150;8.756;2022-08-25T13:25:53;40.10;49.60
17172;DHT22;8701;50.150;8.756;2022-08-25T13:29:58;39.80;50.00
17172;DHT22;8701;50.150;8.756;2022-08-25T13:34:03;39.90;50.70
17172;DHT22;8701;50.150;8.756;2022-08-25T13:38:14;40.10;50.70
17172;DHT22;8701;50.150;8.756;2022-08-25T13:42:17;40.00;50.90
17172;DHT22;8701;50.150;8.756;2022-08-25T13:46:20;39.90;51.80
17172;DHT22;8701;50.150;8.756;2022-08-25T13:50:31;39.80;52.50
17172;DHT22;8701;50.150;8.756;2022-08-25T13:54:38;39.50;51.40
17172;DHT22;8701;50.150;8.756;2022-08-25T13:58:42;39.00;52.10
17172;DHT22;8701;50.150;8.756;2022-08-25T14:02:47;38.60;53.00
17172;DHT22;8701;50.150;8.756;2022-08-25T14:07:11;38.30;53.40
17172;DHT22;8701;50.150;8.756;2022-08-25T14:11:27;38.10;54.50
17172;DHT22;8701;50.150;8.756;2022-08-25T14:15:30;37.80;53.80
17172;DHT22;8701;50.150;8.756;2022-08-25T14:19:34;37.70;55.20
17172;DHT22;8701;50.150;8.756;2022-08-25T14:23:37;37.80;53.00
17172;DHT22;8701;50.150;8.756;2022-08-25T14:27:42;37.70;52.50
17172;DHT22;8701;50.150;8.756;2022-08-25T14:31:46;37.70;52.80
17172;DHT22;8701;50.150;8.756;2022-08-25T14:35:50;37.80;53.50
17172;DHT22;8701;50.150;8.756;2022-08-25T14:39:53;37.50;54.80
17172;DHT22;8701;50.150;8.756;2022-08-25T14:43:57;37.30;55.70
17172;DHT22;8701;50.150;8.756;2022-08-25T14:48:03;36.90;55.80
17172;DHT22;8701;50.150;8.756;2022-08-25T14:52:11;36.50;56.30
17172;DHT22;8701;50.150;8.756;2022-08-25T14:56:14;36.30;56.40
17172;DHT22;8701;50.150;8.756;2022-08-25T15:00:18;36.10;56.80
17172;DHT22;8701;50.150;8.756;2022-08-25T15:04:25;35.90;56.90
17172;DHT22;8701;50.150;8.756;2022-08-25T15:08:28;35.70;58.30
17172;DHT22;8701;50.150;8.756;2022-08-25T15:12:48;35.60;57.60
17172;DHT22;8701;50.150;8.756;2022-08-25T15:16:54;35.40;58.10
17172;DHT22;8701;50.150;8.756;2022-08-25T15:20:57;35.50;56.80
17172;DHT22;8701;50.150;8.756;2022-08-25T15:25:00;35.60;57.30
17172;DHT22;8701;50.150;8.756;2022-08-25T15:29:02;35.60;57.40
17172;DHT22;8701;50.150;8.756;2022-08-25T15:33:06;35.40;58.00
17172;DHT22;8701;50.150;8.756;2022-08-25T15:37:11;35.10;58.20
17172;DHT22;8701;50.150;8.756;2022-08-25T15:41:13;34.40;59.10
17172;DHT22;8701;50.150;8.756;2022-08-25T15:45:16;34.20;59.60
17172;DHT22;8701;50.150;8.756;2022-08-25T15:49:22;34.10;58.30
17172;DHT22;8701;50.150;8.756;2022-08-25T15:53:25;34.20;59.20
17172;DHT22;8701;50.150;8.756;2022-08-25T15:57:28;34.10;58.60
17172;DHT22;8701;50.150;8.756;2022-08-25T16:01:32;33.90;59.70
17172;DHT22;8701;50.150;8.756;2022-08-25T16:05:37;33.60;60.10
17172;DHT22;8701;50.150;8.756;2022-08-25T16:09:42;33.70;60.10
17172;DHT22;8701;50.150;8.756;2022-08-25T16:13:46;33.40;60.40
17172;DHT22;8701;50.150;8.756;2022-08-25T16:18:13;33.20;61.00
17172;DHT22;8701;50.150;8.756;2022-08-25T16:22:24;32.90;61.90
17172;DHT22;8701;50.150;8.756;2022-08-25T16:26:29;32.70;61.20
17172;DHT22;8701;50.150;8.756;2022-08-25T16:30:54;32.60;62.20
17172;DHT22;8701;50.150;8.756;2022-08-25T16:35:08;32.40;62.70
17172;DHT22;8701;50.150;8.756;2022-08-25T16:39:12;32.30;62.80
17172;DHT22;8701;50.150;8.756;2022-08-25T16:43:15;32.10;63.40
17172;DHT22;8701;50.150;8.756;2022-08-25T16:47:17;31.90;63.10
17172;DHT22;8701;50.150;8.756;2022-08-25T16:51:21;31.80;64.50
17172;DHT22;8701;50.150;8.756;2022-08-25T16:55:24;31.70;64.90
17172;DHT22;8701;50.150;8.756;2022-08-25T16:59:27;31.80;63.70
17172;DHT22;8701;50.150;8.756;2022-08-25T17:03:29;31.70;63.60
17172;DHT22;8701;50.150;8.756;2022-08-25T17:07:33;31.60;63.20
17172;DHT22;8701;50.150;8.756;2022-08-25T17:11:40;31.50;62.10
17172;DHT22;8701;50.150;8.756;2022-08-25T17:15:46;31.40;62.90
17172;DHT22;8701;50.150;8.756;2022-08-25T17:19:50;31.30;63.00
17172;DHT22;8701;50.150;8.756;2022-08-25T17:23:53;31.10;62.30
17172;DHT22;8701;50.150;8.756;2022-08-25T17:27:58;31.10;64.00
17172;DHT22;8701;50.150;8.756;2022-08-25T17:32:01;31.00;64.50
17172;DHT22;8701;50.150;8.756;2022-08-25T17:36:05;30.90;64.30
17172;DHT22;8701;50.150;8.756;2022-08-25T17:40:08;30.90;64.90
17172;DHT22;8701;50.150;8.756;2022-08-25T17:44:12;30.80;65.20
17172;DHT22;8701;50.150;8.756;2022-08-25T17:48:14;30.70;65.60
17172;DHT22;8701;50.150;8.756;2022-08-25T17:52:17;30.60;66.00
17172;DHT22;8701;50.150;8.756;2022-08-25T17:56:21;30.30;64.10
17172;DHT22;8701;50.150;8.756;2022-08-25T18:00:25;30.40;65.30
17172;DHT22;8701;50.150;8.756;2022-08-25T18:04:27;30.50;65.80
17172;DHT22;8701;50.150;8.756;2022-08-25T18:08:29;30.30;65.20
17172;DHT22;8701;50.150;8.756;2022-08-25T18:12:32;30.10;66.10
17172;DHT22;8701;50.150;8.756;2022-08-25T18:16:37;30.10;66.80
17172;DHT22;8701;50.150;8.756;2022-08-25T18:20:43;30.00;66.50
17172;DHT22;8701;50.150;8.756;2022-08-25T18:24:45;29.90;67.60
17172;DHT22;8701;50.150;8.756;2022-08-25T18:28:48;29.80;67.40
17172;DHT22;8701;50.150;8.756;2022-08-25T18:32:52;29.70;67.90
17172;DHT22;8701;50.150;8.756;2022-08-25T18:36:56;29.60;68.50
17172;DHT22;8701;50.150;8.756;2022-08-25T18:41:19;29.50;68.20
17172;DHT22;8701;50.150;8.756;2022-08-25T18:45:23;29.40;69.10
17172;DHT22;8701;50.150;8.756;2022-08-25T18:49:28;29.20;69.20
17172;DHT22;8701;50.150;8.756;2022-08-25T18:53:30;29.10;68.40
17172;DHT22;8701;50.150;8.756;2022-08-25T18:57:33;29.00;69.30
17172;DHT22;8701;50.150;8.756;2022-08-25T19:01:36;28.90;70.00
17172;DHT22;8701;50.150;8.756;2022-08-25T19:05:42;28.90;69.90
17172;DHT22;8701;50.150;8.756;2022-08-25T19:09:45;28.80;70.20
17172;DHT22;8701;50.150;8.756;2022-08-25T19:13:47;28.60;70.80
17172;DHT22;8701;50.150;8.756;2022-08-25T19:17:50;28.50;71.20
17172;DHT22;8701;50.150;8.756;2022-08-25T19:21:54;28.50;71.50
17172;DHT22;8701;50.150;8.756;2022-08-25T19:25:58;28.50;72.10
17172;DHT22;8701;50.150;8.756;2022-08-25T19:30:02;28.20;72.10
17172;DHT22;8701;50.150;8.756;2022-08-25T19:34:07;28.30;73.10
17172;DHT22;8701;50.150;8.756;2022-08-25T19:38:16;28.00;72.30
17172;DHT22;8701;50.150;8.756;2022-08-25T19:42:20;28.00;73.20
17172;DHT22;8701;50.150;8.756;2022-08-25T19:46:24;28.00;72.80
17172;DHT22;8701;50.150;8.756;2022-08-25T19:50:27;27.90;73.30
17172;DHT22;8701;50.150;8.756;2022-08-25T19:54:34;27.80;74.20
17172;DHT22;8701;50.150;8.756;2022-08-25T19:58:37;27.80;74.50
17172;DHT22;8701;50.150;8.756;2022-08-25T20:02:39;27.70;74.70
17172;DHT22;8701;50.150;8.756;2022-08-25T20:06:41;27.70;73.90
17172;DHT22;8701;50.150;8.756;2022-08-25T20:10:46;27.50;75.30
17172;DHT22;8701;50.150;8.756;2022-08-25T20:14:50;27.40;74.20
17172;DHT22;8701;50.150;8.756;2022-08-25T20:18:53;27.40;73.40
17172;DHT22;8701;50.150;8.756;2022-08-25T20:22:56;27.30;72.00
17172;DHT22;8701;50.150;8.756;2022-08-25T20:27:22;27.30;71.40
17172;DHT22;8701;50.150;8.756;2022-08-25T20:31:26;27.30;73.00
17172;DHT22;8701;50.150;8.756;2022-08-25T20:35:29;27.30;73.80
17172;DHT22;8701;50.150;8.756;2022-08-25T20:39:31;27.20;74.50
17172;DHT22;8701;50.150;8.756;2022-08-25T20:43:35;27.20;75.30
17172;DHT22;8701;50.150;8.756;2022-08-25T20:47:39;27.10;75.40
17172;DHT22;8701;50.150;8.756;2022-08-25T20:51:44;27.00;75.90
17172;DHT22;8701;50.150;8.756;2022-08-25T20:55:46;27.00;75.50
17172;DHT22;8701;50.150;8.756;2022-08-25T20:59:50;26.80;76.50
17172;DHT22;8701;50.150;8.756;2022-08-25T21:03:53;26.70;76.40
17172;DHT22;8701;50.150;8.756;2022-08-25T21:07:55;26.60;76.00
17172;DHT22;8701;50.150;8.756;2022-08-25T21:11:58;26.60;76.30
17172;DHT22;8701;50.150;8.756;2022-08-25T21:16:03;26.60;76.70
17172;DHT22;8701;50.150;8.756;2022-08-25T21:20:07;26.50;77.40
17172;DHT22;8701;50.150;8.756;2022-08-25T21:24:10;26.50;77.40
17172;DHT22;8701;50.150;8.756;2022-08-25T21:28:13;26.30;78.40
17172;DHT22;8701;50.150;8.756;2022-08-25T21:32:17;26.30;78.10
17172;DHT22;8701;50.150;8.756;2022-08-25T21:36:19;26.20;78.70
17172;DHT22;8701;50.150;8.756;2022-08-25T21:40:21;26.10;78.80
17172;DHT22;8701;50.150;8.756;2022-08-25T21:44:39;26.00;78.30
17172;DHT22;8701;50.150;8.756;2022-08-25T21:48:43;26.00;78.80
17172;DHT22;8701;50.150;8.756;2022-08-25T21:52:46;26.00;78.80
17172;DHT22;8701;50.150;8.756;2022-08-25T21:56:50;25.90;80.00
17172;DHT22;8701;50.150;8.756;2022-08-25T22:00:53;25.90;80.00
17172;DHT22;8701;50.150;8.756;2022-08-25T22:04:56;25.60;80.20
17172;DHT22;8701;50.150;8.756;2022-08-25T22:09:00;25.70;80.30
17172;DHT22;8701;50.150;8.756;2022-08-25T22:13:02;25.60;80.60
17172;DHT22;8701;50.150;8.756;2022-08-25T22:17:05;25.60;81.00
17172;DHT22;8701;50.150;8.756;2022-08-25T22:21:09;25.50;81.60
17172;DHT22;8701;50.150;8.756;2022-08-25T22:25:12;25.40;81.50
17172;DHT22;8701;50.150;8.756;2022-08-25T22:29:14;25.30;81.70
17172;DHT22;8701;50.150;8.756;2022-08-25T22:33:17;25.30;82.40
17172;DHT22;8701;50.150;8.756;2022-08-25T22:37:21;25.30;82.30
17172;DHT22;8701;50.150;8.756;2022-08-25T22:41:25;25.20;82.40
17172;DHT22;8701;50.150;8.756;2022-08-25T22:45:28;25.10;83.50
17172;DHT22;8701;50.150;8.756;2022-08-25T22:49:31;25.00;84.20
17172;DHT22;8701;50.150;8.756;2022-08-25T22:53:37;24.90;83.80
17172;DHT22;8701;50.150;8.756;2022-08-25T22:57:40;24.80;84.70
17172;DHT22;8701;50.150;8.756;2022-08-25T23:01:43;24.80;84.60
17172;DHT22;8701;50.150;8.756;2022-08-25T23:05:46;24.70;84.30
17172;DHT22;8701;50.150;8.756;2022-08-25T23:09:50;24.60;84.80
17172;DHT22;8701;50.150;8.756;2022-08-25T23:13:53;24.60;84.80
17172;DHT22;8701;50.150;8.756;2022-08-25T23:17:56;24.50;86.00
17172;DHT22;8701;50.150;8.756;2022-08-25T23:21:58;24.40;87.00
17172;DHT22;8701;50.150;8.756;2022-08-25T23:26:11;24.40;85.70
17172;DHT22;8701;50.150;8.756;2022-08-25T23:30:13;24.50;85.90
17172;DHT22;8701;50.150;8.756;2022-08-25T23:34:16;24.40;86.30
17172;DHT22;8701;50.150;8.756;2022-08-25T23:38:19;24.30;87.10
17172;DHT22;8701;50.150;8.756;2022-08-25T23:42:23;24.20;88.50
17172;DHT22;8701;50.150;8.756;2022-08-25T23:46:26;24.20;88.40
17172;DHT22;8701;50.150;8.756;2022-08-25T23:50:30;24.10;89.30
17172;DHT22;8701;50.150;8.756;2022-08-25T23:54:32;23.90;89.80
17172;DHT22;8701;50.150;8.756;2022-08-25T23:58:38;23.80;89.90
